sensor_id;sensor_type;location;lat;lon;timestamp;temperature;humidity
3614;DHT22;1821;50.936;6.854;2023-09-08T00:02:35;19.90;99.90
3614;DHT22;1821;50.936;6.854;2023-09-08T00:03:16;19.80;99.90
3614;DHT22;1821;50.936;6.854;2023-09-08T00:03:59;19.90;99.90
3614;DHT22;1821;50.936;6.854;2023-09-08T00:04:41;19.80;99.90
3614;DHT22;1821;50.936;6.854;2023-09-08T00:05:23;20.00;99.90
3614;DHT22;1821;50.936;6.854;2023-09-08T00:06:05;19.90;99.90
3614;DHT22;1821;50.936;6.854;2023-09-08T00:06:47;19.90;99.90
3614;DHT22;1821;50.936;6.854;2023-09-08T00:08:12;19.90;99.90
3614;DHT22;1821;50.936;6.854;2023-09-08T00:08:54;19.80;99.90
3614;DHT22;1821;50.936;6.854;2023-09-08T00:09:36;19.90;99.90
3614;DHT22;1821;50.936;6.854;2023-09-08T00:10:18;19.80;99.90
3614;DHT22;1821;50.936;6.854;2023-09-08T00:11:00;19.80;99.90
3614;DHT22;1821;50.936;6.854;2023-09-08T00:11:42;19.80;99.90
3614;DHT22;1821;50.936;6.854;2023-09-08T00:12:24;19.80;99.90
3614;DHT22;1821;50.936;6.854;2023-09-08T00:13:09;19.80;99.90
3614;DHT22;1821;50.936;6.854;2023-09-08T00:13:51;19.80;99.90
3614;DHT22;1821;50.936;6.854;2023-09-08T00:14:33;19.70;99.90
3614;DHT22;1821;50.936;6.854;2023-09-08T00:15:15;19.70;99.90
3614;DHT22;1821;50.936;6.854;2023-09-08T00:15:57;19.70;99.90
3614;DHT22;1821;50.936;6.854;2023-09-08T00:16:39;19.70;99.90
3614;DHT22;1821;50.936;6.854;2023-09-08T00:17:24;19.70;99.90
3614;DHT22;1821;50.936;6.854;2023-09-08T00:18:06;19.70;99.90
3614;DHT22;1821;50.936;6.854;2023-09-08T00:18:50;19.70;99.90
3614;DHT22;1821;50.936;6.854;2023-09-08T00:19:32;19.70;99.90
3614;DHT22;1821;50.936;6.854;2023-09-08T00:20:14;19.60;99.90
3614;DHT22;1821;50.936;6.854;2023-09-08T00:20:56;19.60;99.90
3614;DHT22;1821;50.936;6.854;2023-09-08T00:21:38;19.60;99.90
3614;DHT22;1821;50.936;6.854;2023-09-08T00:22:20;19.60;99.90
3614;DHT22;1821;50.936;6.854;2023-09-08T00:23:02;19.60;99.90
3614;DHT22;1821;50.936;6.854;2023-09-08T00:24:27;19.60;99.90
3614;DHT22;1821;50.936;6.854;2023-09-08T00:25:09;19.60;99.90
3614;DHT22;1821;50.936;6.854;2023-09-08T00:25:51;19.60;99.90
3614;DHT22;1821;50.936;6.854;2023-09-08T00:26:33;19.60;99.90
3614;DHT22;1821;50.936;6.854;2023-09-08T00:27:15;19.50;99.90
3614;DHT22;1821;50.936;6.854;2023-09-08T00:27:59;19.60;99.90
3614;DHT22;1821;50.936;6.854;2023-09-08T00:28:42;19.60;99.90
3614;DHT22;1821;50.936;6.854;2023-09-08T00:29:24;19.60;99.90
3614;DHT22;1821;50.936;6.854;2023-09-08T00:30:06;19.60;99.90
3614;DHT22;1821;50.936;6.854;2023-09-08T00:30:48;19.60;99.90
3614;DHT22;1821;50.936;6.854;2023-09-08T00:31:30;19.60;99.90
3614;DHT22;1821;50.936;6.854;2023-09-08T00:32:12;19.50;99.90
3614;DHT22;1821;50.936;6.854;2023-09-08T00:32:54;19.50;99.90
3614;DHT22;1821;50.936;6.854;2023-09-08T00:33:37;19.50;99.90
3614;DHT22;1821;50.936;6.854;2023-09-08T00:34:19;19.50;99.90
3614;DHT22;1821;50.936;6.854;2023-09-08T00:35:01;19.50;99.90
3614;DHT22;1821;50.936;6.854;2023-09-08T00:35:49;19.40;99.90
3614;DHT22;1821;50.936;6.854;2023-09-08T00:36:31;19.40;99.90
3614;DHT22;1821;50.936;6.854;2023-09-08T00:37:13;19.40;99.90
3614;DHT22;1821;50.936;6.854;2023-09-08T00:37:55;19.30;99.90
3614;DHT22;1821;50.936;6.854;2023-09-08T00:38:37;19.20;99.90
3614;DHT22;1821;50.936;6.854;2023-09-08T00:39:19;19.20;99.90
3614;DHT22;1821;50.936;6.854;2023-09-08T00:40:01;19.20;99.90
3614;DHT22;1821;50.936;6.854;2023-09-08T00:40:43;19.20;99.90
3614;DHT22;1821;50.936;6.854;2023-09-08T00:41:25;19.10;99.90
3614;DHT22;1821;50.936;6.854;2023-09-08T00:42:07;19.10;99.90
3614;DHT22;1821;50.936;6.854;2023-09-08T00:42:49;19.10;99.90
3614;DHT22;1821;50.936;6.854;2023-09-08T00:43:31;19.00;99.90
3614;DHT22;1821;50.936;6.854;2023-09-08T00:44:16;19.00;99.90
3614;DHT22;1821;50.936;6.854;2023-09-08T00:44:58;19.00;99.90
3614;DHT22;1821;50.936;6.854;2023-09-08T00:45:42;19.00;99.90
3614;DHT22;1821;50.936;6.854;2023-09-08T00:46:24;19.00;99.90
3614;DHT22;1821;50.936;6.854;2023-09-08T00:47:09;18.90;99.90
3614;DHT22;1821;50.936;6.854;2023-09-08T00:48:34;19.00;99.90
3614;DHT22;1821;50.936;6.854;2023-09-08T00:49:17;19.00;99.90
3614;DHT22;1821;50.936;6.854;2023-09-08T00:50:00;19.00;99.90
3614;DHT22;1821;50.936;6.854;2023-09-08T00:51:25;19.00;99.90
3614;DHT22;1821;50.936;6.854;2023-09-08T00:52:07;18.90;99.90
3614;DHT22;1821;50.936;6.854;2023-09-08T00:52:49;18.90;99.90
3614;DHT22;1821;50.936;6.854;2023-09-08T00:53:31;18.90;99.90
3614;DHT22;1821;50.936;6.854;2023-09-08T00:54:14;18.80;99.90
3614;DHT22;1821;50.936;6.854;2023-09-08T00:54:56;18.90;99.90
3614;DHT22;1821;50.936;6.854;2023-09-08T00:55:39;18.90;99.90
3614;DHT22;1821;50.936;6.854;2023-09-08T00:56:23;18.90;99.90
3614;DHT22;1821;50.936;6.854;2023-09-08T00:57:48;18.90;99.90
3614;DHT22;1821;50.936;6.854;2023-09-08T00:58:31;18.90;99.90
3614;DHT22;1821;50.936;6.854;2023-09-08T00:59:56;18.90;99.90
3614;DHT22;1821;50.936;6.854;2023-09-08T01:00:39;18.90;99.90
3614;DHT22;1821;50.936;6.854;2023-09-08T01:01:21;18.80;99.90
3614;DHT22;1821;50.936;6.854;2023-09-08T01:02:03;18.90;99.90
3614;DHT22;1821;50.936;6.854;2023-09-08T01:02:45;18.80;99.90
3614;DHT22;1821;50.936;6.854;2023-09-08T01:03:29;18.90;99.90
3614;DHT22;1821;50.936;6.854;2023-09-08T01:04:11;18.90;99.90
3614;DHT22;1821;50.936;6.854;2023-09-08T01:04:53;18.80;99.90
3614;DHT22;1821;50.936;6.854;2023-09-08T01:05:35;18.90;99.90
3614;DHT22;1821;50.936;6.854;2023-09-08T01:06:18;18.80;99.90
3614;DHT22;1821;50.936;6.854;2023-09-08T01:07:00;18.80;99.90
3614;DHT22;1821;50.936;6.854;2023-09-08T01:07:43;18.70;99.90
3614;DHT22;1821;50.936;6.854;2023-09-08T01:08:26;18.70;99.90
3614;DHT22;1821;50.936;6.854;2023-09-08T01:09:10;18.70;99.90
3614;DHT22;1821;50.936;6.854;2023-09-08T01:09:53;18.60;99.90
3614;DHT22;1821;50.936;6.854;2023-09-08T01:11:19;18.60;99.90
3614;DHT22;1821;50.936;6.854;2023-09-08T01:12:07;18.60;99.90
3614;DHT22;1821;50.936;6.854;2023-09-08T01:12:49;18.70;99.90
3614;DHT22;1821;50.936;6.854;2023-09-08T01:13:31;18.70;99.90
3614;DHT22;1821;50.936;6.854;2023-09-08T01:14:13;18.70;99.90
3614;DHT22;1821;50.936;6.854;2023-09-08T01:14:55;18.70;99.90
3614;DHT22;1821;50.936;6.854;2023-09-08T01:15:37;18.70;99.90
3614;DHT22;1821;50.936;6.854;2023-09-08T01:16:19;18.70;99.90
3614;DHT22;1821;50.936;6.854;2023-09-08T01:17:01;18.60;99.90
3614;DHT22;1821;50.936;6.854;2023-09-08T01:17:44;18.60;99.90
3614;DHT22;1821;50.936;6.854;2023-09-08T01:18:26;18.60;99.90
3614;DHT22;1821;50.936;6.854;2023-09-08T01:19:12;18.60;99.90
3614;DHT22;1821;50.936;6.854;2023-09-08T01:20:22;18.60;99.90
3614;DHT22;1821;50.936;6.854;2023-09-08T01:23:27;18.50;99.90
3614;DHT22;1821;50.936;6.854;2023-09-08T01:24:41;18.50;99.90
3614;DHT22;1821;50.936;6.854;2023-09-08T01:25:30;18.50;99.90
3614;DHT22;1821;50.936;6.854;2023-09-08T01:26:17;18.50;99.90
3614;DHT22;1821;50.936;6.854;2023-09-08T01:27:00;18.50;99.90
3614;DHT22;1821;50.936;6.854;2023-09-08T01:27:46;18.30;99.90
3614;DHT22;1821;50.936;6.854;2023-09-08T01:28:31;18.30;99.90
3614;DHT22;1821;50.936;6.854;2023-09-08T01:29:16;18.30;99.90
3614;DHT22;1821;50.936;6.854;2023-09-08T01:29:59;18.30;99.90
3614;DHT22;1821;50.936;6.854;2023-09-08T01:30:42;18.40;99.90
3614;DHT22;1821;50.936;6.854;2023-09-08T01:31:24;18.40;99.90
3614;DHT22;1821;50.936;6.854;2023-09-08T01:32:06;18.30;99.90
3614;DHT22;1821;50.936;6.854;2023-09-08T01:32:50;18.30;99.90
3614;DHT22;1821;50.936;6.854;2023-09-08T01:33:33;18.30;99.90
3614;DHT22;1821;50.936;6.854;2023-09-08T01:34:15;18.20;99.90
3614;DHT22;1821;50.936;6.854;2023-09-08T01:34:58;18.20;99.90
3614;DHT22;1821;50.936;6.854;2023-09-08T01:35:41;18.10;99.90
3614;DHT22;1821;50.936;6.854;2023-09-08T01:36:23;18.20;99.90
3614;DHT22;1821;50.936;6.854;2023-09-08T01:37:06;18.20;99.90
3614;DHT22;1821;50.936;6.854;2023-09-08T01:37:49;18.10;99.90
3614;DHT22;1821;50.936;6.854;2023-09-08T01:38:31;18.00;99.90
3614;DHT22;1821;50.936;6.854;2023-09-08T01:39:56;18.00;99.90
3614;DHT22;1821;50.936;6.854;2023-09-08T01:40:37;18.10;99.90
3614;DHT22;1821;50.936;6.854;2023-09-08T01:41:19;18.20;99.90
3614;DHT22;1821;50.936;6.854;2023-09-08T01:42:01;18.10;99.90
3614;DHT22;1821;50.936;6.854;2023-09-08T01:42:45;18.10;99.90
3614;DHT22;1821;50.936;6.854;2023-09-08T01:43:27;18.20;99.90
3614;DHT22;1821;50.936;6.854;2023-09-08T01:44:09;18.20;99.90
3614;DHT22;1821;50.936;6.854;2023-09-08T01:44:53;18.20;99.90
3614;DHT22;1821;50.936;6.854;2023-09-08T01:45:35;18.20;99.90
3614;DHT22;1821;50.936;6.854;2023-09-08T01:46:20;18.20;99.90
3614;DHT22;1821;50.936;6.854;2023-09-08T01:47:07;18.20;99.90
3614;DHT22;1821;50.936;6.854;2023-09-08T01:47:49;18.20;99.90
3614;DHT22;1821;50.936;6.854;2023-09-08T01:48:31;18.20;99.90
3614;DHT22;1821;50.936;6.854;2023-09-08T01:49:13;18.20;99.90
3614;DHT22;1821;50.936;6.854;2023-09-08T01:49:57;18.30;99.90
3614;DHT22;1821;50.936;6.854;2023-09-08T01:50:39;18.20;99.90
3614;DHT22;1821;50.936;6.854;2023-09-08T01:51:21;18.20;99.90
3614;DHT22;1821;50.936;6.854;2023-09-08T01:52:03;18.30;99.90
3614;DHT22;1821;50.936;6.854;2023-09-08T01:52:46;18.30;99.90
3614;DHT22;1821;50.936;6.854;2023-09-08T01:53:28;18.20;99.90
3614;DHT22;1821;50.936;6.854;2023-09-08T01:54:10;18.20;99.90
3614;DHT22;1821;50.936;6.854;2023-09-08T01:56:17;18.20;99.90
3614;DHT22;1821;50.936;6.854;2023-09-08T01:56:59;18.20;99.90
3614;DHT22;1821;50.936;6.854;2023-09-08T01:57:41;18.20;99.90
3614;DHT22;1821;50.936;6.854;2023-09-08T01:58:23;18.30;99.90
3614;DHT22;1821;50.936;6.854;2023-09-08T01:59:05;18.20;99.90
3614;DHT22;1821;50.936;6.854;2023-09-08T01:59:49;18.20;99.90
3614;DHT22;1821;50.936;6.854;2023-09-08T02:00:31;18.10;99.90
3614;DHT22;1821;50.936;6.854;2023-09-08T02:01:13;18.10;99.90
3614;DHT22;1821;50.936;6.854;2023-09-08T02:01:58;18.10;99.90
3614;DHT22;1821;50.936;6.854;2023-09-08T02:02:40;18.10;99.90
3614;DHT22;1821;50.936;6.854;2023-09-08T02:03:23;18.10;99.90
3614;DHT22;1821;50.936;6.854;2023-09-08T02:04:05;18.10;99.90
3614;DHT22;1821;50.936;6.854;2023-09-08T02:04:49;18.10;99.90
3614;DHT22;1821;50.936;6.854;2023-09-08T02:05:31;18.10;99.90
3614;DHT22;1821;50.936;6.854;2023-09-08T02:06:13;18.10;99.90
3614;DHT22;1821;50.936;6.854;2023-09-08T02:06:55;18.20;99.90
3614;DHT22;1821;50.936;6.854;2023-09-08T02:07:37;18.10;99.90
3614;DHT22;1821;50.936;6.854;2023-09-08T02:08:19;18.20;99.90
3614;DHT22;1821;50.936;6.854;2023-09-08T02:09:01;18.20;99.90
3614;DHT22;1821;50.936;6.854;2023-09-08T02:09:43;18.20;99.90
3614;DHT22;1821;50.936;6.854;2023-09-08T02:10:28;18.20;99.90
3614;DHT22;1821;50.936;6.854;2023-09-08T02:11:10;18.20;99.90
3614;DHT22;1821;50.936;6.854;2023-09-08T02:11:52;18.20;99.90
3614;DHT22;1821;50.936;6.854;2023-09-08T02:12:34;18.20;99.90
3614;DHT22;1821;50.936;6.854;2023-09-08T02:13:16;18.20;99.90
3614;DHT22;1821;50.936;6.854;2023-09-08T02:13:58;18.20;99.90
3614;DHT22;1821;50.936;6.854;2023-09-08T02:15:23;18.30;99.90
3614;DHT22;1821;50.936;6.854;2023-09-08T02:16:05;18.30;99.90
3614;DHT22;1821;50.936;6.854;2023-09-08T02:16:47;18.30;99.90
3614;DHT22;1821;50.936;6.854;2023-09-08T02:17:29;18.20;99.90
3614;DHT22;1821;50.936;6.854;2023-09-08T02:18:11;18.30;99.90
3614;DHT22;1821;50.936;6.854;2023-09-08T02:18:55;18.30;99.90
3614;DHT22;1821;50.936;6.854;2023-09-08T02:21:43;18.20;99.90
3614;DHT22;1821;50.936;6.854;2023-09-08T02:22:25;18.20;99.90
3614;DHT22;1821;50.936;6.854;2023-09-08T02:23:07;18.20;99.90
3614;DHT22;1821;50.936;6.854;2023-09-08T02:23:49;18.20;99.90
3614;DHT22;1821;50.936;6.854;2023-09-08T02:24:32;18.20;99.90
3614;DHT22;1821;50.936;6.854;2023-09-08T02:25:14;18.00;99.90
3614;DHT22;1821;50.936;6.854;2023-09-08T02:25:56;18.00;99.90
3614;DHT22;1821;50.936;6.854;2023-09-08T02:26:38;18.00;99.90
3614;DHT22;1821;50.936;6.854;2023-09-08T02:27:20;18.00;99.90
3614;DHT22;1821;50.936;6.854;2023-09-08T02:28:48;18.00;99.90
3614;DHT22;1821;50.936;6.854;2023-09-08T02:29:31;17.90;99.90
3614;DHT22;1821;50.936;6.854;2023-09-08T02:30:13;17.90;99.90
3614;DHT22;1821;50.936;6.854;2023-09-08T02:30:57;17.90;99.90
3614;DHT22;1821;50.936;6.854;2023-09-08T02:31:39;17.90;99.90
3614;DHT22;1821;50.936;6.854;2023-09-08T02:32:21;17.90;99.90
3614;DHT22;1821;50.936;6.854;2023-09-08T02:33:03;17.90;99.90
3614;DHT22;1821;50.936;6.854;2023-09-08T02:33:45;18.00;99.90
3614;DHT22;1821;50.936;6.854;2023-09-08T02:34:27;18.00;99.90
3614;DHT22;1821;50.936;6.854;2023-09-08T02:35:09;18.00;99.90
3614;DHT22;1821;50.936;6.854;2023-09-08T02:35:52;18.00;99.90
3614;DHT22;1821;50.936;6.854;2023-09-08T02:36:34;17.90;99.90
3614;DHT22;1821;50.936;6.854;2023-09-08T02:37:16;18.00;99.90
3614;DHT22;1821;50.936;6.854;2023-09-08T02:38:00;18.00;99.90
3614;DHT22;1821;50.936;6.854;2023-09-08T02:38:42;18.00;99.90
3614;DHT22;1821;50.936;6.854;2023-09-08T02:39:24;18.00;99.90
3614;DHT22;1821;50.936;6.854;2023-09-08T02:40:10;18.00;99.90
3614;DHT22;1821;50.936;6.854;2023-09-08T02:40:52;18.00;99.90
3614;DHT22;1821;50.936;6.854;2023-09-08T02:41:34;18.10;99.90
3614;DHT22;1821;50.936;6.854;2023-09-08T02:42:17;18.00;99.90
3614;DHT22;1821;50.936;6.854;2023-09-08T02:42:59;18.10;99.90
3614;DHT22;1821;50.936;6.854;2023-09-08T02:43:43;18.00;99.90
3614;DHT22;1821;50.936;6.854;2023-09-08T02:44:25;18.10;99.90
3614;DHT22;1821;50.936;6.854;2023-09-08T02:45:08;18.00;99.90
3614;DHT22;1821;50.936;6.854;2023-09-08T02:45:51;18.00;99.90
3614;DHT22;1821;50.936;6.854;2023-09-08T02:46:33;18.00;99.90
3614;DHT22;1821;50.936;6.854;2023-09-08T02:47:15;18.00;99.90
3614;DHT22;1821;50.936;6.854;2023-09-08T02:48:00;18.00;99.90
3614;DHT22;1821;50.936;6.854;2023-09-08T02:48:44;17.90;99.90
3614;DHT22;1821;50.936;6.854;2023-09-08T02:49:26;18.00;99.90
3614;DHT22;1821;50.936;6.854;2023-09-08T02:50:09;18.00;99.90
3614;DHT22;1821;50.936;6.854;2023-09-08T02:51:37;17.90;99.90
3614;DHT22;1821;50.936;6.854;2023-09-08T02:52:19;17.90;99.90
3614;DHT22;1821;50.936;6.854;2023-09-08T02:53:01;17.90;99.90
3614;DHT22;1821;50.936;6.854;2023-09-08T02:53:43;17.80;99.90
3614;DHT22;1821;50.936;6.854;2023-09-08T02:54:28;17.80;99.90
3614;DHT22;1821;50.936;6.854;2023-09-08T02:55:10;17.80;99.90
3614;DHT22;1821;50.936;6.854;2023-09-08T02:56:37;17.80;99.90
3614;DHT22;1821;50.936;6.854;2023-09-08T02:57:19;17.80;99.90
3614;DHT22;1821;50.936;6.854;2023-09-08T02:58:01;17.80;99.90
3614;DHT22;1821;50.936;6.854;2023-09-08T02:58:43;17.90;99.90
3614;DHT22;1821;50.936;6.854;2023-09-08T03:00:08;17.90;99.90
3614;DHT22;1821;50.936;6.854;2023-09-08T03:02:18;17.90;99.90
3614;DHT22;1821;50.936;6.854;2023-09-08T03:03:00;17.80;99.90
3614;DHT22;1821;50.936;6.854;2023-09-08T03:03:42;17.80;99.90
3614;DHT22;1821;50.936;6.854;2023-09-08T03:04:24;17.80;99.90
3614;DHT22;1821;50.936;6.854;2023-09-08T03:05:07;17.70;99.90
3614;DHT22;1821;50.936;6.854;2023-09-08T03:05:53;17.60;99.90
3614;DHT22;1821;50.936;6.854;2023-09-08T03:06:36;17.50;99.90
3614;DHT22;1821;50.936;6.854;2023-09-08T03:07:18;17.50;99.90
3614;DHT22;1821;50.936;6.854;2023-09-08T03:10:55;17.50;99.90
3614;DHT22;1821;50.936;6.854;2023-09-08T03:11:38;17.40;99.90
3614;DHT22;1821;50.936;6.854;2023-09-08T03:12:20;17.40;99.90
3614;DHT22;1821;50.936;6.854;2023-09-08T03:13:03;17.30;99.90
3614;DHT22;1821;50.936;6.854;2023-09-08T03:13:45;17.20;99.90
3614;DHT22;1821;50.936;6.854;2023-09-08T03:14:27;17.20;99.90
3614;DHT22;1821;50.936;6.854;2023-09-08T03:15:09;17.30;99.90
3614;DHT22;1821;50.936;6.854;2023-09-08T03:15:52;17.30;99.90
3614;DHT22;1821;50.936;6.854;2023-09-08T03:16:34;17.30;99.90
3614;DHT22;1821;50.936;6.854;2023-09-08T03:17:16;17.40;99.90
3614;DHT22;1821;50.936;6.854;2023-09-08T03:17:58;17.40;99.90
3614;DHT22;1821;50.936;6.854;2023-09-08T03:18:43;17.40;99.90
3614;DHT22;1821;50.936;6.854;2023-09-08T03:19:25;17.40;99.90
3614;DHT22;1821;50.936;6.854;2023-09-08T03:20:10;17.40;99.90
3614;DHT22;1821;50.936;6.854;2023-09-08T03:20:52;17.40;99.90
3614;DHT22;1821;50.936;6.854;2023-09-08T03:23:45;17.20;99.90
3614;DHT22;1821;50.936;6.854;2023-09-08T03:24:27;17.20;99.90
3614;DHT22;1821;50.936;6.854;2023-09-08T03:25:09;17.20;99.90
3614;DHT22;1821;50.936;6.854;2023-09-08T03:25:51;17.10;99.90
3614;DHT22;1821;50.936;6.854;2023-09-08T03:26:33;17.30;99.90
3614;DHT22;1821;50.936;6.854;2023-09-08T03:27:15;17.30;99.90
3614;DHT22;1821;50.936;6.854;2023-09-08T03:27:57;17.30;99.90
3614;DHT22;1821;50.936;6.854;2023-09-08T03:28:39;17.30;99.90
3614;DHT22;1821;50.936;6.854;2023-09-08T03:30:05;17.30;99.90
3614;DHT22;1821;50.936;6.854;2023-09-08T03:30:47;17.30;99.90
3614;DHT22;1821;50.936;6.854;2023-09-08T03:31:29;17.20;99.90
3614;DHT22;1821;50.936;6.854;2023-09-08T03:32:12;17.20;99.90
3614;DHT22;1821;50.936;6.854;2023-09-08T03:34:19;17.30;99.90
3614;DHT22;1821;50.936;6.854;2023-09-08T03:35:47;17.10;99.90
3614;DHT22;1821;50.936;6.854;2023-09-08T03:36:29;17.20;99.90
3614;DHT22;1821;50.936;6.854;2023-09-08T03:37:12;17.10;99.90
3614;DHT22;1821;50.936;6.854;2023-09-08T03:37:54;17.20;99.90
3614;DHT22;1821;50.936;6.854;2023-09-08T03:38:38;17.10;99.90
3614;DHT22;1821;50.936;6.854;2023-09-08T03:39:21;16.90;99.90
3614;DHT22;1821;50.936;6.854;2023-09-08T03:40:03;17.00;99.90
3614;DHT22;1821;50.936;6.854;2023-09-08T03:40:48;17.00;99.90
3614;DHT22;1821;50.936;6.854;2023-09-08T03:41:30;17.10;99.90
3614;DHT22;1821;50.936;6.854;2023-09-08T03:42:12;17.00;99.90
3614;DHT22;1821;50.936;6.854;2023-09-08T03:42:54;17.00;99.90
3614;DHT22;1821;50.936;6.854;2023-09-08T03:44:21;16.90;99.90
3614;DHT22;1821;50.936;6.854;2023-09-08T03:45:04;16.90;99.90
3614;DHT22;1821;50.936;6.854;2023-09-08T03:45:46;16.90;99.90
3614;DHT22;1821;50.936;6.854;2023-09-08T03:46:29;16.90;99.90
3614;DHT22;1821;50.936;6.854;2023-09-08T03:47:11;16.80;99.90
3614;DHT22;1821;50.936;6.854;2023-09-08T03:47:53;16.90;99.90
3614;DHT22;1821;50.936;6.854;2023-09-08T03:48:35;16.90;99.90
3614;DHT22;1821;50.936;6.854;2023-09-08T03:49:19;16.90;99.90
3614;DHT22;1821;50.936;6.854;2023-09-08T03:50:01;17.00;99.90
3614;DHT22;1821;50.936;6.854;2023-09-08T03:50:43;17.00;99.90
3614;DHT22;1821;50.936;6.854;2023-09-08T03:52:13;17.00;99.90
3614;DHT22;1821;50.936;6.854;2023-09-08T03:52:58;17.00;99.90
3614;DHT22;1821;50.936;6.854;2023-09-08T03:53:40;17.00;99.90
3614;DHT22;1821;50.936;6.854;2023-09-08T03:54:24;16.90;99.90
3614;DHT22;1821;50.936;6.854;2023-09-08T03:55:08;16.90;99.90
3614;DHT22;1821;50.936;6.854;2023-09-08T03:55:53;16.80;99.90
3614;DHT22;1821;50.936;6.854;2023-09-08T03:56:35;16.70;99.90
3614;DHT22;1821;50.936;6.854;2023-09-08T03:57:19;16.70;99.90
3614;DHT22;1821;50.936;6.854;2023-09-08T03:58:01;16.70;99.90
3614;DHT22;1821;50.936;6.854;2023-09-08T03:58:43;16.70;99.90
3614;DHT22;1821;50.936;6.854;2023-09-08T03:59:25;16.70;99.90
3614;DHT22;1821;50.936;6.854;2023-09-08T04:00:10;16.90;99.90
3614;DHT22;1821;50.936;6.854;2023-09-08T04:00:52;16.80;99.90
3614;DHT22;1821;50.936;6.854;2023-09-08T04:01:34;16.80;99.90
3614;DHT22;1821;50.936;6.854;2023-09-08T04:02:16;16.80;99.90
3614;DHT22;1821;50.936;6.854;2023-09-08T04:03:41;16.80;99.90
3614;DHT22;1821;50.936;6.854;2023-09-08T04:05:05;16.90;99.90
3614;DHT22;1821;50.936;6.854;2023-09-08T04:05:48;16.90;99.90
3614;DHT22;1821;50.936;6.854;2023-09-08T04:07:15;16.90;99.90
3614;DHT22;1821;50.936;6.854;2023-09-08T04:07:57;16.90;99.90
3614;DHT22;1821;50.936;6.854;2023-09-08T04:08:39;16.90;99.90
3614;DHT22;1821;50.936;6.854;2023-09-08T04:09:21;16.90;99.90
3614;DHT22;1821;50.936;6.854;2023-09-08T04:10:06;17.00;99.90
3614;DHT22;1821;50.936;6.854;2023-09-08T04:10:48;17.00;99.90
3614;DHT22;1821;50.936;6.854;2023-09-08T04:11:32;17.00;99.90
3614;DHT22;1821;50.936;6.854;2023-09-08T04:12:14;17.00;99.90
3614;DHT22;1821;50.936;6.854;2023-09-08T04:12:57;17.00;99.90
3614;DHT22;1821;50.936;6.854;2023-09-08T04:14:21;17.10;99.90
3614;DHT22;1821;50.936;6.854;2023-09-08T04:15:52;17.10;99.90
3614;DHT22;1821;50.936;6.854;2023-09-08T04:16:34;17.10;99.90
3614;DHT22;1821;50.936;6.854;2023-09-08T04:17:17;17.10;99.90
3614;DHT22;1821;50.936;6.854;2023-09-08T04:17:59;17.10;99.90
3614;DHT22;1821;50.936;6.854;2023-09-08T04:20:07;17.20;99.90
3614;DHT22;1821;50.936;6.854;2023-09-08T04:20:52;17.20;99.90
3614;DHT22;1821;50.936;6.854;2023-09-08T04:21:34;17.30;99.90
3614;DHT22;1821;50.936;6.854;2023-09-08T04:22:16;17.20;99.90
3614;DHT22;1821;50.936;6.854;2023-09-08T04:22:58;17.20;99.90
3614;DHT22;1821;50.936;6.854;2023-09-08T04:23:40;17.20;99.90
3614;DHT22;1821;50.936;6.854;2023-09-08T04:24:22;17.20;99.90
3614;DHT22;1821;50.936;6.854;2023-09-08T04:25:04;17.20;99.90
3614;DHT22;1821;50.936;6.854;2023-09-08T04:25:47;17.20;99.90
3614;DHT22;1821;50.936;6.854;2023-09-08T04:26:29;17.20;99.90
3614;DHT22;1821;50.936;6.854;2023-09-08T04:27:11;17.20;99.90
3614;DHT22;1821;50.936;6.854;2023-09-08T04:28:38;17.10;99.90
3614;DHT22;1821;50.936;6.854;2023-09-08T04:29:22;17.20;99.90
3614;DHT22;1821;50.936;6.854;2023-09-08T04:30:05;17.10;99.90
3614;DHT22;1821;50.936;6.854;2023-09-08T04:30:48;17.20;99.90
3614;DHT22;1821;50.936;6.854;2023-09-08T04:31:33;17.20;99.90
3614;DHT22;1821;50.936;6.854;2023-09-08T04:32:15;17.20;99.90
3614;DHT22;1821;50.936;6.854;2023-09-08T04:32:59;17.30;99.90
3614;DHT22;1821;50.936;6.854;2023-09-08T04:33:41;17.10;99.90
3614;DHT22;1821;50.936;6.854;2023-09-08T04:34:23;17.20;99.90
3614;DHT22;1821;50.936;6.854;2023-09-08T04:35:06;17.20;99.90
3614;DHT22;1821;50.936;6.854;2023-09-08T04:35:49;17.20;99.90
3614;DHT22;1821;50.936;6.854;2023-09-08T04:36:31;17.20;99.90
3614;DHT22;1821;50.936;6.854;2023-09-08T04:37:13;17.20;99.90
3614;DHT22;1821;50.936;6.854;2023-09-08T04:37:55;17.30;99.90
3614;DHT22;1821;50.936;6.854;2023-09-08T04:38:37;17.30;99.90
3614;DHT22;1821;50.936;6.854;2023-09-08T04:39:19;17.20;99.90
3614;DHT22;1821;50.936;6.854;2023-09-08T04:40:04;17.20;99.90
3614;DHT22;1821;50.936;6.854;2023-09-08T04:40:46;17.20;99.90
3614;DHT22;1821;50.936;6.854;2023-09-08T04:42:10;17.20;99.90
3614;DHT22;1821;50.936;6.854;2023-09-08T04:42:52;17.30;99.90
3614;DHT22;1821;50.936;6.854;2023-09-08T04:43:34;17.20;99.90
3614;DHT22;1821;50.936;6.854;2023-09-08T04:44:17;17.20;99.90
3614;DHT22;1821;50.936;6.854;2023-09-08T04:46:28;17.10;99.90
3614;DHT22;1821;50.936;6.854;2023-09-08T04:47:13;17.10;99.90
3614;DHT22;1821;50.936;6.854;2023-09-08T04:47:55;17.10;99.90
3614;DHT22;1821;50.936;6.854;2023-09-08T04:48:39;17.30;99.90
3614;DHT22;1821;50.936;6.854;2023-09-08T04:49:22;17.30;99.90
3614;DHT22;1821;50.936;6.854;2023-09-08T04:50:04;17.30;99.90
3614;DHT22;1821;50.936;6.854;2023-09-08T04:51:29;17.30;99.90
3614;DHT22;1821;50.936;6.854;2023-09-08T04:52:11;17.30;99.90
3614;DHT22;1821;50.936;6.854;2023-09-08T04:52:53;17.30;99.90
3614;DHT22;1821;50.936;6.854;2023-09-08T04:53:35;17.30;99.90
3614;DHT22;1821;50.936;6.854;2023-09-08T04:54:18;17.40;99.90
3614;DHT22;1821;50.936;6.854;2023-09-08T04:55:01;17.30;99.90
3614;DHT22;1821;50.936;6.854;2023-09-08T04:55:43;17.30;99.90
3614;DHT22;1821;50.936;6.854;2023-09-08T04:56:25;17.30;99.90
3614;DHT22;1821;50.936;6.854;2023-09-08T04:57:07;17.30;99.90
3614;DHT22;1821;50.936;6.854;2023-09-08T04:58:03;17.20;99.90
3614;DHT22;1821;50.936;6.854;2023-09-08T04:58:45;17.30;99.90
3614;DHT22;1821;50.936;6.854;2023-09-08T04:59:27;17.40;99.90
3614;DHT22;1821;50.936;6.854;2023-09-08T05:02:19;17.40;99.90
3614;DHT22;1821;50.936;6.854;2023-09-08T05:03:44;17.30;99.90
3614;DHT22;1821;50.936;6.854;2023-09-08T05:04:26;17.40;99.90
3614;DHT22;1821;50.936;6.854;2023-09-08T05:05:53;17.40;99.90
3614;DHT22;1821;50.936;6.854;2023-09-08T05:06:36;17.40;99.90
3614;DHT22;1821;50.936;6.854;2023-09-08T05:07:18;17.40;99.90
3614;DHT22;1821;50.936;6.854;2023-09-08T05:08:00;17.30;99.90
3614;DHT22;1821;50.936;6.854;2023-09-08T05:08:42;17.30;99.90
3614;DHT22;1821;50.936;6.854;2023-09-08T05:09:25;17.30;99.90
3614;DHT22;1821;50.936;6.854;2023-09-08T05:10:08;17.30;99.90
3614;DHT22;1821;50.936;6.854;2023-09-08T05:10:50;17.40;99.90
3614;DHT22;1821;50.936;6.854;2023-09-08T05:11:35;17.40;99.90
3614;DHT22;1821;50.936;6.854;2023-09-08T05:12:17;17.40;99.90
3614;DHT22;1821;50.936;6.854;2023-09-08T05:12:59;17.40;99.90
3614;DHT22;1821;50.936;6.854;2023-09-08T05:14:23;17.50;99.90
3614;DHT22;1821;50.936;6.854;2023-09-08T05:15:56;17.50;99.90
3614;DHT22;1821;50.936;6.854;2023-09-08T05:16:42;17.50;99.90
3614;DHT22;1821;50.936;6.854;2023-09-08T05:18:12;17.40;99.90
3614;DHT22;1821;50.936;6.854;2023-09-08T05:18:54;17.50;99.90
3614;DHT22;1821;50.936;6.854;2023-09-08T05:19:36;17.50;99.90
3614;DHT22;1821;50.936;6.854;2023-09-08T05:20:18;17.50;99.90
3614;DHT22;1821;50.936;6.854;2023-09-08T05:21:01;17.50;99.90
3614;DHT22;1821;50.936;6.854;2023-09-08T05:21:43;17.50;99.90
3614;DHT22;1821;50.936;6.854;2023-09-08T05:22:25;17.50;99.90